createdAt,value
2023-05-02T00:02:19.896Z,100.00
2023-05-02T00:04:46.084Z,100.00
2023-05-02T00:07:12.117Z,100.00
2023-05-02T00:09:38.118Z,100.00
2023-05-02T00:12:04.095Z,100.00
2023-05-02T00:14:29.936Z,100.00
2023-05-02T00:16:55.784Z,100.00
2023-05-02T00:19:21.656Z,100.00
2023-05-02T00:21:48.486Z,100.00
2023-05-02T00:24:15.553Z,100.00
2023-05-02T00:26:44.133Z,100.00
2023-05-02T00:29:09.972Z,100.00
2023-05-02T00:31:36.181Z,100.00
2023-05-02T00:34:02.042Z,100.00
2023-05-02T00:36:27.876Z,100.00
2023-05-02T00:38:53.820Z,100.00
2023-05-02T00:41:19.795Z,100.00
2023-05-02T00:43:45.732Z,100.00
2023-05-02T00:46:12.787Z,100.00
2023-05-02T00:48:39.113Z,100.00
2023-05-02T00:51:05.633Z,100.00
2023-05-02T00:53:31.741Z,100.00
2023-05-02T00:55:58.420Z,100.00
2023-05-02T00:58:25.974Z,100.00
2023-05-02T01:00:54.937Z,100.00
2023-05-02T01:03:36.243Z,100.00
2023-05-02T01:06:33.185Z,100.00
2023-05-02T01:09:36.263Z,100.00
2023-05-02T01:12:10.963Z,100.00
2023-05-02T01:14:43.321Z,100.00
2023-05-02T01:17:14.927Z,100.00
2023-05-02T01:20:13.113Z,100.00
2023-05-02T01:22:43.158Z,100.00
2023-05-02T01:25:46.481Z,100.00
2023-05-02T01:28:38.223Z,100.00
2023-05-02T01:31:05.633Z,100.00
2023-05-02T01:33:34.498Z,100.00
2023-05-02T01:36:02.640Z,100.00
2023-05-02T01:38:29.338Z,100.00
2023-05-02T01:40:57.722Z,100.00
2023-05-02T01:43:25.287Z,100.00
2023-05-02T01:45:52.434Z,100.00
2023-05-02T01:48:19.785Z,100.00
2023-05-02T01:50:48.124Z,100.00
2023-05-02T01:53:14.589Z,100.00
2023-05-02T01:55:44.585Z,100.00
2023-05-02T01:58:11.441Z,100.00
2023-05-02T02:00:38.968Z,100.00
2023-05-02T02:03:06.844Z,100.00
2023-05-02T02:05:34.366Z,100.00
2023-05-02T02:08:00.537Z,100.00
2023-05-02T02:10:31.142Z,100.00
2023-05-02T02:13:13.184Z,100.00
2023-05-02T02:15:40.870Z,100.00
2023-05-02T02:18:12.760Z,100.00
2023-05-02T02:20:42.539Z,100.00
2023-05-02T02:23:10.290Z,100.00
2023-05-02T02:25:37.154Z,100.00
2023-05-02T02:28:03.567Z,100.00
2023-05-02T02:30:29.487Z,100.00
2023-05-02T02:32:55.357Z,100.00
2023-05-02T02:35:22.859Z,100.00
2023-05-02T02:38:02.688Z,100.00
2023-05-02T02:40:37.212Z,100.00
2023-05-02T02:43:03.586Z,100.00
2023-05-02T02:45:53.128Z,100.00
2023-05-02T02:48:32.474Z,100.00
2023-05-02T02:51:01.472Z,100.00
2023-05-02T02:53:39.857Z,100.00
2023-05-02T02:56:15.227Z,100.00
2023-05-02T02:59:03.892Z,100.00
2023-05-02T03:01:33.559Z,100.00
2023-05-02T03:04:04.976Z,100.00
2023-05-02T03:06:31.059Z,100.00
2023-05-02T03:08:57.650Z,100.00
2023-05-02T03:11:23.471Z,100.00
2023-05-02T03:13:49.262Z,100.00
2023-05-02T03:16:38.641Z,100.00
2023-05-02T03:19:06.145Z,100.00
2023-05-02T03:21:32.676Z,100.00
2023-05-02T03:24:00.151Z,100.00
2023-05-02T03:26:26.664Z,100.00
2023-05-02T03:28:53.186Z,100.00
2023-05-02T03:31:19.119Z,100.00
2023-05-02T03:33:44.949Z,100.00
2023-05-02T03:36:10.869Z,100.00
2023-05-02T03:38:36.702Z,100.00
2023-05-02T03:41:03.357Z,100.00
2023-05-02T03:43:30.168Z,100.00
2023-05-02T03:45:56.089Z,100.00
2023-05-02T03:48:22.092Z,100.00
2023-05-02T03:50:48.957Z,100.00
2023-05-02T03:53:15.519Z,100.00
2023-05-02T03:55:42.739Z,100.00
2023-05-02T03:58:10.121Z,100.00
2023-05-02T04:00:37.537Z,100.00
2023-05-02T04:03:03.954Z,100.00
2023-05-02T04:05:29.851Z,100.00
2023-05-02T04:07:56.560Z,100.00
2023-05-02T04:10:22.551Z,100.00
2023-05-02T04:12:48.489Z,100.00
2023-05-02T04:15:14.496Z,100.00
2023-05-02T04:17:40.432Z,100.00
2023-05-02T04:20:07.055Z,100.00
2023-05-02T04:22:33.272Z,100.00
2023-05-02T04:24:59.208Z,100.00
2023-05-02T04:27:25.257Z,100.00
2023-05-02T04:29:52.623Z,100.00
2023-05-02T04:32:18.834Z,100.00
2023-05-02T04:34:44.708Z,100.00
2023-05-02T04:37:10.551Z,100.00
2023-05-02T04:39:36.341Z,100.00
2023-05-02T04:42:02.906Z,100.00
2023-05-02T04:44:28.697Z,100.00
2023-05-02T04:46:54.577Z,100.00
2023-05-02T04:49:20.497Z,100.00
2023-05-02T04:51:46.268Z,100.00
2023-05-02T04:54:12.313Z,100.00
2023-05-02T04:56:38.706Z,100.00
2023-05-02T04:59:04.514Z,100.00
2023-05-02T05:01:30.431Z,100.00
2023-05-02T05:03:56.396Z,100.00
2023-05-02T05:06:22.521Z,100.00
2023-05-02T05:08:48.477Z,100.00
2023-05-02T05:11:15.298Z,100.00
2023-05-02T05:13:41.961Z,100.00
2023-05-02T05:16:08.286Z,100.00
2023-05-02T05:18:39.743Z,100.00
2023-05-02T05:21:09.524Z,100.00
2023-05-02T05:23:36.699Z,100.00
2023-05-02T05:26:12.675Z,100.00
2023-05-02T05:28:38.803Z,100.00
2023-05-02T05:31:08.707Z,100.00
2023-05-02T05:33:35.277Z,100.00
2023-05-02T05:36:19.708Z,100.00
2023-05-02T05:38:46.766Z,100.00
2023-05-02T05:41:12.600Z,100.00
2023-05-02T05:43:38.542Z,100.00
2023-05-02T05:46:04.793Z,100.00
2023-05-02T05:48:30.703Z,100.00
2023-05-02T05:50:56.538Z,100.00
2023-05-02T05:53:22.372Z,100.00
2023-05-02T05:55:48.266Z,100.00
2023-05-02T05:58:14.673Z,100.00
2023-05-02T06:00:41.663Z,100.00
2023-05-02T06:03:09.565Z,100.00
2023-05-02T06:05:36.014Z,100.00
2023-05-02T06:08:02.064Z,100.00
2023-05-02T06:10:27.936Z,100.00
2023-05-02T06:12:53.753Z,100.00
2023-05-02T06:15:19.753Z,100.00
2023-05-02T06:17:45.604Z,100.00
2023-05-02T06:20:11.667Z,100.00
2023-05-02T06:22:38.997Z,100.00
2023-05-02T06:25:05.770Z,100.00
2023-05-02T06:27:33.563Z,100.00
2023-05-02T06:29:59.942Z,100.00
2023-05-02T06:32:29.999Z,100.00
2023-05-02T06:34:55.821Z,100.00
2023-05-02T06:37:21.677Z,100.00
2023-05-02T06:39:47.512Z,100.00
2023-05-02T06:42:13.396Z,100.00
2023-05-02T06:44:39.193Z,100.00
2023-05-02T06:47:06.781Z,100.00
2023-05-02T06:49:33.048Z,100.00
2023-05-02T06:51:58.890Z,100.00
2023-05-02T06:54:25.689Z,100.00
2023-05-02T06:56:51.593Z,100.00
2023-05-02T06:59:17.389Z,100.00
2023-05-02T07:01:43.840Z,100.00
2023-05-02T07:04:09.852Z,100.00
2023-05-02T07:06:36.147Z,100.00
2023-05-02T07:09:02.085Z,100.00
2023-05-02T07:11:27.910Z,100.00
2023-05-02T07:13:53.910Z,100.00
2023-05-02T07:16:20.031Z,100.00
2023-05-02T07:18:45.975Z,100.00
2023-05-02T07:21:12.576Z,100.00
2023-05-02T07:23:38.446Z,100.00
2023-05-02T07:26:07.343Z,100.00
2023-05-02T07:28:33.289Z,100.00
2023-05-02T07:30:59.127Z,100.00
2023-05-02T07:33:25.050Z,100.00
2023-05-02T07:35:51.347Z,100.00
2023-05-02T07:38:17.189Z,100.00
2023-05-02T07:40:43.107Z,100.00
2023-05-02T07:43:11.081Z,100.00
2023-05-02T07:45:37.147Z,100.00
2023-05-02T07:48:03.260Z,100.00
2023-05-02T07:50:29.087Z,100.00
2023-05-02T07:52:55.516Z,100.00
2023-05-02T07:55:21.627Z,100.00
2023-05-02T07:57:47.502Z,100.00
2023-05-02T08:00:13.882Z,100.00
2023-05-02T08:02:41.204Z,100.00
2023-05-02T08:05:07.689Z,100.00
2023-05-02T08:07:34.762Z,100.00
2023-05-02T08:10:01.341Z,100.00
2023-05-02T08:12:27.500Z,100.00
2023-05-02T08:14:53.823Z,100.00
2023-05-02T08:17:20.714Z,100.00
2023-05-02T08:19:46.567Z,100.00
2023-05-02T08:22:12.469Z,100.00
2023-05-02T08:24:38.365Z,100.00
2023-05-02T08:27:04.124Z,100.00
2023-05-02T08:29:30.648Z,100.00
2023-05-02T08:31:56.756Z,100.00
2023-05-02T08:34:22.619Z,100.00
2023-05-02T08:36:48.419Z,100.00
2023-05-02T08:39:14.674Z,100.00
2023-05-02T08:41:40.639Z,100.00
2023-05-02T08:44:09.800Z,100.00
2023-05-02T08:46:36.997Z,100.00
2023-05-02T08:49:04.930Z,100.00
2023-05-02T08:51:32.072Z,100.00
2023-05-02T08:53:59.220Z,100.00
2023-05-02T08:56:25.594Z,100.00
2023-05-02T08:58:51.597Z,100.00
2023-05-02T09:01:21.920Z,100.00
2023-05-02T09:03:48.137Z,100.00
2023-05-02T09:06:21.844Z,100.00
2023-05-02T09:08:50.173Z,100.00
2023-05-02T09:11:16.727Z,100.00
2023-05-02T09:13:47.128Z,100.00
2023-05-02T09:16:22.026Z,100.00
2023-05-02T09:18:49.837Z,100.00
2023-05-02T09:21:21.499Z,100.00
2023-05-02T09:24:00.955Z,100.00
2023-05-02T09:26:32.039Z,100.00
2023-05-02T09:29:00.585Z,100.00
2023-05-02T09:31:54.315Z,100.00
2023-05-02T09:34:22.682Z,100.00
2023-05-02T09:36:51.192Z,100.00
2023-05-02T09:41:47.548Z,100.00
2023-05-02T09:44:21.783Z,100.00
2023-05-02T09:46:49.304Z,100.00
2023-05-02T09:49:18.977Z,100.00
2023-05-02T09:51:46.629Z,100.00
2023-05-02T09:54:13.693Z,100.00
2023-05-02T09:56:55.955Z,100.00
2023-05-02T09:59:22.337Z,100.00
2023-05-02T10:02:08.865Z,100.00
2023-05-02T10:04:35.925Z,100.00
2023-05-02T10:07:02.613Z,100.00
2023-05-02T10:09:31.819Z,100.00
2023-05-02T10:12:04.178Z,100.00
2023-05-02T10:14:34.228Z,100.00
2023-05-02T10:17:13.609Z,100.00
2023-05-02T10:19:56.154Z,100.00
2023-05-02T10:22:22.516Z,100.00
2023-05-02T10:24:49.691Z,100.00
2023-05-02T10:27:15.941Z,100.00
2023-05-02T10:29:42.030Z,100.00
2023-05-02T10:32:08.792Z,100.00
2023-05-02T10:34:35.465Z,100.00
2023-05-02T10:37:01.832Z,100.00
2023-05-02T10:39:29.052Z,100.00
2023-05-02T10:41:57.610Z,100.00
2023-05-02T10:44:40.598Z,100.00
2023-05-02T10:47:26.108Z,100.00
2023-05-02T10:49:54.542Z,100.00
2023-05-02T10:52:40.820Z,100.00
2023-05-02T10:55:18.673Z,100.00
2023-05-02T10:57:56.716Z,100.00
2023-05-02T11:00:28.542Z,100.00
2023-05-02T11:02:55.197Z,100.00
2023-05-02T11:05:23.391Z,100.00
2023-05-02T11:07:49.528Z,100.00
2023-05-02T11:10:21.577Z,100.00
2023-05-02T11:12:55.767Z,100.00
2023-05-02T11:15:28.226Z,100.00
2023-05-02T11:18:09.157Z,100.00
2023-05-02T11:20:36.559Z,100.00
2023-05-02T11:23:14.549Z,100.00
2023-05-02T11:25:54.462Z,100.00
2023-05-02T11:28:44.544Z,100.00
2023-05-02T11:31:28.597Z,100.00
2023-05-02T11:33:58.476Z,100.00
2023-05-02T11:36:32.730Z,100.00
2023-05-02T11:39:00.319Z,100.00
2023-05-02T11:41:42.190Z,100.00
2023-05-02T11:44:08.137Z,100.00
2023-05-02T11:46:38.599Z,100.00
2023-05-02T11:49:06.967Z,100.00
2023-05-02T11:51:35.085Z,100.00
2023-05-02T11:54:01.068Z,100.00
2023-05-02T11:56:27.494Z,100.00
2023-05-02T11:59:01.061Z,100.00
2023-05-02T12:01:27.596Z,100.00
2023-05-02T12:04:09.891Z,100.00
2023-05-02T12:06:36.085Z,100.00
2023-05-02T12:09:19.590Z,100.00
2023-05-02T12:11:51.413Z,100.00
2023-05-02T12:14:17.315Z,100.00
2023-05-02T12:16:43.376Z,100.00
2023-05-02T12:19:09.583Z,100.00
2023-05-02T12:21:35.602Z,100.00
2023-05-02T12:24:02.295Z,100.00
2023-05-02T12:26:32.967Z,100.00
2023-05-02T12:29:00.176Z,100.00
2023-05-02T12:31:28.357Z,100.00
2023-05-02T12:33:56.889Z,100.00
2023-05-02T12:36:23.604Z,100.00
2023-05-02T12:38:52.528Z,100.00
2023-05-02T12:41:32.374Z,100.00
2023-05-02T12:43:59.956Z,100.00
2023-05-02T12:46:28.511Z,98.50
2023-05-02T12:49:05.502Z,93.15
2023-05-02T12:51:32.338Z,90.25
2023-05-02T12:53:58.200Z,85.08
2023-05-02T12:56:26.874Z,81.12
2023-05-02T12:58:52.699Z,77.20
2023-05-02T13:01:18.798Z,77.61
2023-05-02T13:03:44.775Z,78.59
2023-05-02T13:06:10.750Z,84.69
2023-05-02T13:08:36.705Z,84.86
2023-05-02T13:11:03.722Z,88.54
2023-05-02T13:13:30.461Z,91.88
2023-05-02T13:15:56.354Z,91.10
2023-05-02T13:18:22.593Z,92.36
2023-05-02T13:20:48.887Z,90.33
2023-05-02T13:23:16.150Z,92.88
2023-05-02T13:25:42.255Z,95.10
2023-05-02T13:28:08.147Z,96.47
2023-05-02T13:30:34.304Z,92.74
2023-05-02T13:33:00.562Z,89.79
2023-05-02T13:35:26.629Z,87.82
2023-05-02T13:37:52.457Z,87.05
2023-05-02T13:40:18.360Z,90.73
2023-05-02T13:42:44.240Z,93.16
2023-05-02T13:45:10.730Z,93.02
2023-05-02T13:47:37.023Z,93.97
2023-05-02T13:50:03.453Z,93.03
2023-05-02T13:52:29.622Z,91.40
2023-05-02T13:54:55.459Z,93.47
2023-05-02T13:57:21.271Z,94.87
2023-05-02T13:59:47.214Z,91.19
2023-05-02T14:02:12.973Z,82.28
2023-05-02T14:04:38.742Z,84.33
2023-05-02T14:07:04.570Z,84.47
2023-05-02T14:09:30.453Z,82.98
2023-05-02T14:11:58.034Z,81.93
2023-05-02T14:14:24.090Z,80.90
2023-05-02T14:16:50.649Z,75.53
2023-05-02T14:19:16.675Z,70.51
2023-05-02T14:21:42.575Z,72.40
2023-05-02T14:24:08.414Z,74.62
2023-05-02T14:26:34.404Z,72.89
2023-05-02T14:29:00.920Z,68.44
2023-05-02T14:31:27.065Z,72.33
2023-05-02T14:33:53.064Z,74.81
2023-05-02T14:36:19.175Z,71.79
2023-05-02T14:38:45.087Z,72.04
2023-05-02T14:41:11.095Z,74.37
2023-05-02T14:43:37.129Z,75.62
2023-05-02T14:46:03.318Z,76.28
2023-05-02T14:48:29.440Z,73.98
2023-05-02T14:50:56.695Z,74.36
2023-05-02T14:53:22.645Z,75.07
2023-05-02T14:55:48.577Z,74.78
2023-05-02T14:58:19.633Z,74.25
2023-05-02T15:00:46.333Z,74.59
2023-05-02T15:03:12.597Z,72.73
2023-05-02T15:05:39.291Z,69.21
2023-05-02T15:08:05.591Z,67.07
2023-05-02T15:10:33.830Z,63.46
2023-05-02T15:12:59.964Z,62.16
2023-05-02T15:15:26.232Z,63.59
2023-05-02T15:17:52.332Z,63.87
2023-05-02T15:20:18.479Z,63.31
2023-05-02T15:22:44.491Z,61.34
2023-05-02T15:25:10.552Z,60.33
2023-05-02T15:27:36.484Z,59.55
2023-05-02T15:30:03.253Z,54.92
2023-05-02T15:32:29.473Z,54.35
2023-05-02T15:34:55.406Z,52.59
2023-05-02T15:37:21.251Z,51.63
2023-05-02T15:39:47.208Z,53.67
2023-05-02T15:42:13.066Z,51.93
2023-05-02T15:44:38.881Z,53.20
2023-05-02T15:47:05.106Z,57.23
2023-05-02T15:49:32.733Z,58.84
2023-05-02T15:51:59.491Z,60.82
2023-05-02T15:54:25.570Z,61.04
2023-05-02T15:56:51.453Z,59.61
2023-05-02T15:59:18.289Z,52.88
2023-05-02T16:01:44.824Z,51.49
2023-05-02T16:04:10.951Z,49.96
2023-05-02T16:06:37.370Z,50.46
2023-05-02T16:09:05.733Z,49.91
2023-05-02T16:11:32.273Z,51.22
2023-05-02T16:13:59.672Z,48.63
2023-05-02T16:16:27.236Z,50.38
2023-05-02T16:18:53.343Z,51.01
2023-05-02T16:21:19.473Z,53.92
2023-05-02T16:23:45.456Z,54.30
2023-05-02T16:26:11.344Z,57.01
2023-05-02T16:28:37.236Z,56.61
2023-05-02T16:31:07.289Z,58.41
2023-05-02T16:33:33.246Z,59.42
2023-05-02T16:36:01.148Z,59.72
2023-05-02T16:38:27.050Z,59.25
2023-05-02T16:40:52.888Z,54.95
2023-05-02T16:43:18.972Z,55.16
2023-05-02T16:45:46.574Z,54.94
2023-05-02T16:48:13.046Z,55.18
2023-05-02T16:50:38.970Z,54.07
2023-05-02T16:53:05.792Z,53.70
2023-05-02T16:55:31.722Z,54.63
2023-05-02T16:57:57.649Z,55.63
2023-05-02T17:00:23.784Z,55.46
2023-05-02T17:02:51.597Z,56.60
2023-05-02T17:05:19.316Z,55.46
2023-05-02T17:07:45.479Z,53.90
2023-05-02T17:10:11.756Z,55.76
2023-05-02T17:12:37.695Z,57.57
2023-05-02T17:15:04.470Z,56.59
2023-05-02T17:17:30.610Z,57.54
2023-05-02T17:19:56.497Z,57.32
2023-05-02T17:22:22.834Z,57.21
2023-05-02T17:24:52.108Z,56.87
2023-05-02T17:27:20.058Z,58.80
2023-05-02T17:29:45.975Z,58.99
2023-05-02T17:32:14.074Z,60.51
2023-05-02T17:34:40.095Z,60.37
2023-05-02T17:37:07.212Z,61.16
2023-05-02T17:39:33.301Z,60.31
2023-05-02T17:42:02.414Z,61.37
2023-05-02T17:44:30.709Z,61.76
2023-05-02T17:46:57.363Z,63.23
2023-05-02T17:49:23.415Z,63.13
2023-05-02T17:51:49.220Z,64.20
2023-05-02T17:54:15.330Z,64.92
2023-05-02T17:56:41.962Z,64.37
2023-05-02T17:59:09.646Z,65.27
2023-05-02T18:01:35.592Z,67.27
2023-05-02T18:04:03.331Z,67.68
2023-05-02T18:06:31.077Z,66.61
2023-05-02T18:08:58.710Z,66.34
2023-05-02T18:11:26.055Z,66.66
2023-05-02T18:13:52.394Z,65.84
2023-05-02T18:16:18.564Z,66.58
2023-05-02T18:18:44.750Z,67.50
2023-05-02T18:21:10.953Z,67.70
2023-05-02T18:23:37.204Z,66.40
2023-05-02T18:26:03.423Z,67.35
2023-05-02T18:28:29.531Z,67.19
2023-05-02T18:30:55.407Z,66.92
2023-05-02T18:33:21.326Z,67.47
2023-05-02T18:35:48.114Z,67.28
2023-05-02T18:38:15.102Z,67.74
2023-05-02T18:40:41.965Z,68.37
2023-05-02T18:43:07.916Z,69.69
2023-05-02T18:45:35.141Z,70.01
2023-05-02T18:48:02.274Z,69.78
2023-05-02T18:50:28.187Z,70.13
2023-05-02T18:52:54.270Z,71.08
2023-05-02T18:55:23.518Z,70.09
2023-05-02T18:57:51.083Z,70.41
2023-05-02T19:00:18.504Z,70.14
2023-05-02T19:02:44.639Z,72.02
2023-05-02T19:05:10.591Z,70.60
2023-05-02T19:07:38.430Z,71.07
2023-05-02T19:10:05.059Z,71.88
2023-05-02T19:12:31.029Z,70.98
2023-05-02T19:14:56.903Z,71.31
2023-05-02T19:17:26.157Z,71.65
2023-05-02T19:19:52.590Z,72.04
2023-05-02T19:22:21.698Z,71.59
2023-05-02T19:24:47.793Z,72.77
2023-05-02T19:27:14.461Z,73.63
2023-05-02T19:29:40.956Z,73.26
2023-05-02T19:32:07.163Z,73.39
2023-05-02T19:34:35.984Z,74.00
2023-05-02T19:37:03.680Z,74.28
2023-05-02T19:39:30.960Z,75.42
2023-05-02T19:41:57.054Z,75.01
2023-05-02T19:44:23.242Z,74.92
2023-05-02T19:46:49.474Z,74.87
2023-05-02T19:49:15.503Z,74.69
2023-05-02T19:51:41.286Z,74.08
2023-05-02T19:54:07.350Z,74.07
2023-05-02T19:56:33.369Z,74.53
2023-05-02T19:59:00.567Z,74.80
2023-05-02T20:01:28.742Z,75.56
2023-05-02T20:03:55.081Z,76.41
2023-05-02T20:06:21.345Z,76.13
2023-05-02T20:08:47.555Z,76.05
2023-05-02T20:11:13.826Z,76.64
2023-05-02T20:13:40.061Z,76.59
2023-05-02T20:16:06.809Z,78.15
2023-05-02T20:18:32.688Z,78.21
2023-05-02T20:20:58.612Z,78.06
2023-05-02T20:23:24.490Z,78.73
2023-05-02T20:25:50.856Z,79.20
2023-05-02T20:28:16.816Z,80.17
2023-05-02T20:30:43.440Z,80.74
2023-05-02T20:33:15.371Z,81.20
2023-05-02T20:35:42.509Z,81.73
2023-05-02T20:38:09.086Z,82.09
2023-05-02T20:40:41.785Z,82.53
2023-05-02T20:43:08.202Z,84.08
2023-05-02T20:45:34.521Z,84.53
2023-05-02T20:48:00.410Z,83.98
2023-05-02T20:50:27.633Z,84.73
2023-05-02T20:52:54.308Z,85.01
2023-05-02T20:55:21.994Z,85.43
2023-05-02T20:57:52.010Z,85.92
2023-05-02T21:00:19.097Z,86.09
2023-05-02T21:02:45.096Z,86.90
2023-05-02T21:05:11.246Z,86.32
2023-05-02T21:07:39.696Z,85.55
2023-05-02T21:10:08.604Z,85.94
2023-05-02T21:12:34.529Z,87.71
2023-05-02T21:15:00.412Z,87.60
2023-05-02T21:17:26.350Z,87.54
2023-05-02T21:19:53.568Z,88.01
2023-05-02T21:22:19.357Z,87.06
2023-05-02T21:24:49.944Z,88.25
2023-05-02T21:27:15.959Z,88.81
2023-05-02T21:29:41.798Z,89.22
2023-05-02T21:32:07.769Z,88.29
2023-05-02T21:34:33.675Z,87.64
2023-05-02T21:37:00.392Z,88.32
2023-05-02T21:39:26.261Z,88.56
2023-05-02T21:41:52.289Z,89.37
2023-05-02T21:44:18.155Z,90.74
2023-05-02T21:46:46.438Z,90.29
2023-05-02T21:49:12.536Z,91.41
2023-05-02T21:51:39.923Z,90.49
2023-05-02T21:54:06.618Z,91.31
2023-05-02T21:56:32.467Z,91.61
2023-05-02T21:58:58.418Z,90.11
2023-05-02T22:01:24.605Z,91.06
2023-05-02T22:03:50.964Z,90.20
2023-05-02T22:06:16.894Z,90.50
2023-05-02T22:08:43.949Z,91.48
2023-05-02T22:11:09.890Z,90.95
2023-05-02T22:13:36.102Z,92.23
2023-05-02T22:16:02.457Z,92.85
2023-05-02T22:18:28.341Z,93.51
2023-05-02T22:20:56.508Z,93.52
2023-05-02T22:23:23.075Z,95.56
2023-05-02T22:25:48.882Z,95.87
2023-05-02T22:28:14.746Z,96.74
2023-05-02T22:30:44.124Z,96.82
2023-05-02T22:33:11.263Z,97.21
2023-05-02T22:35:37.771Z,98.82
2023-05-02T22:38:04.263Z,98.39
2023-05-02T22:40:30.805Z,97.68
2023-05-02T22:42:57.658Z,98.02
2023-05-02T22:45:23.677Z,98.05
2023-05-02T22:47:50.672Z,97.07
2023-05-02T22:50:16.544Z,96.00
2023-05-02T22:52:42.366Z,95.78
2023-05-02T22:55:08.704Z,96.66
2023-05-02T22:57:38.492Z,96.61
2023-05-02T23:00:06.582Z,96.22
2023-05-02T23:02:32.844Z,97.06
2023-05-02T23:04:58.769Z,96.45
2023-05-02T23:07:24.767Z,96.81
2023-05-02T23:09:50.810Z,97.07
2023-05-02T23:12:16.697Z,96.71
2023-05-02T23:14:42.723Z,97.46
2023-05-02T23:17:08.515Z,98.21
2023-05-02T23:19:34.346Z,97.39
2023-05-02T23:22:00.228Z,96.24
2023-05-02T23:24:26.864Z,96.37
2023-05-02T23:26:52.708Z,96.20
2023-05-02T23:29:18.615Z,96.55
2023-05-02T23:31:44.768Z,97.74
2023-05-02T23:34:11.627Z,98.27
2023-05-02T23:36:38.507Z,98.19
2023-05-02T23:39:05.333Z,98.18
2023-05-02T23:41:31.715Z,98.48
2023-05-02T23:43:57.534Z,98.24
2023-05-02T23:46:24.251Z,97.95
2023-05-02T23:48:50.074Z,97.74
2023-05-02T23:51:18.461Z,98.00
2023-05-02T23:53:44.306Z,98.02
2023-05-02T23:56:10.150Z,98.52
2023-05-02T23:58:35.952Z,99.26
